createdAt,value
2019-02-15T00:00:58.944Z,0.90
2019-02-15T00:03:29.262Z,0.90
2019-02-15T00:05:59.605Z,0.80
2019-02-15T00:08:30.597Z,0.80
2019-02-15T00:11:00.930Z,0.80
2019-02-15T00:13:31.273Z,0.80
2019-02-15T00:16:01.636Z,0.80
2019-02-15T00:18:38.373Z,0.70
2019-02-15T00:21:14.245Z,0.70
2019-02-15T00:23:44.611Z,0.70
2019-02-15T00:26:16.567Z,0.60
2019-02-15T00:28:46.973Z,0.60
2019-02-15T00:31:19.875Z,0.60
2019-02-15T00:33:50.204Z,0.60
2019-02-15T00:36:20.506Z,0.60
2019-02-15T00:38:50.874Z,0.60
2019-02-15T00:41:21.287Z,0.60
2019-02-15T00:43:51.580Z,0.60
2019-02-15T00:46:49.922Z,0.60
2019-02-15T00:49:27.208Z,0.60
2019-02-15T00:52:18.479Z,0.50
2019-02-15T00:54:54.510Z,0.50
2019-02-15T00:57:44.080Z,0.50
2019-02-15T01:00:51.800Z,0.40
2019-02-15T01:03:39.602Z,0.40
2019-02-15T01:06:26.204Z,0.40
2019-02-15T01:09:24.712Z,0.40
2019-02-15T01:12:00.624Z,0.30
2019-02-15T01:14:30.995Z,0.30
2019-02-15T01:17:01.351Z,0.30
2019-02-15T01:19:31.654Z,0.30
2019-02-15T01:22:02.023Z,0.30
2019-02-15T01:24:32.385Z,0.20
2019-02-15T01:27:15.864Z,0.20
2019-02-15T01:30:20.433Z,0.20
2019-02-15T01:33:06.626Z,0.10
2019-02-15T01:35:49.578Z,0.10
2019-02-15T01:38:37.789Z,0.00
2019-02-15T01:41:20.629Z,0.00
2019-02-15T01:44:12.698Z,0.00
2019-02-15T01:46:47.751Z,0.00
2019-02-15T01:49:18.042Z,-0.10
2019-02-15T01:51:48.408Z,-0.10
2019-02-15T01:54:18.711Z,-0.10
2019-02-15T01:56:50.097Z,-0.10
2019-02-15T01:59:20.449Z,-0.20
2019-02-15T02:01:50.991Z,-0.20
2019-02-15T02:04:21.530Z,-0.20
2019-02-15T02:06:52.056Z,-0.20
2019-02-15T02:09:22.378Z,-0.20
2019-02-15T02:11:53.012Z,-0.20
2019-02-15T02:14:23.352Z,-0.20
2019-02-15T02:16:53.774Z,-0.20
2019-02-15T02:19:25.242Z,-0.20
2019-02-15T02:21:55.576Z,-0.20
2019-02-15T02:24:25.937Z,-0.20
2019-02-15T02:26:56.383Z,-0.20
2019-02-15T02:29:26.800Z,-0.20
2019-02-15T02:31:57.170Z,-0.20
2019-02-15T02:34:27.567Z,-0.20
2019-02-15T02:36:57.941Z,-0.20
2019-02-15T02:39:28.296Z,-0.20
2019-02-15T02:41:58.633Z,-0.20
2019-02-15T02:44:29.052Z,-0.20
2019-02-15T02:46:59.380Z,-0.20
2019-02-15T02:49:30.734Z,-0.20
2019-02-15T02:52:02.058Z,-0.20
2019-02-15T02:54:32.489Z,-0.20
2019-02-15T02:57:02.869Z,-0.20
2019-02-15T02:59:33.424Z,-0.20
2019-02-15T03:02:03.712Z,-0.20
2019-02-15T03:04:34.606Z,-0.30
2019-02-15T03:07:04.933Z,-0.30
2019-02-15T03:09:35.291Z,-0.30
2019-02-15T03:12:05.583Z,-0.30
2019-02-15T03:14:35.910Z,-0.40
2019-02-15T03:17:06.226Z,-0.40
2019-02-15T03:19:36.567Z,-0.40
2019-02-15T03:22:06.878Z,-0.40
2019-02-15T03:24:37.237Z,-0.40
2019-02-15T03:27:07.550Z,-0.40
2019-02-15T03:29:37.914Z,-0.40
2019-02-15T03:32:08.229Z,-0.40
2019-02-15T03:34:38.571Z,-0.40
2019-02-15T03:37:30.857Z,-0.40
2019-02-15T03:40:06.349Z,-0.40
2019-02-15T03:42:36.671Z,-0.50
2019-02-15T03:45:07.075Z,-0.50
2019-02-15T03:47:37.415Z,-0.60
2019-02-15T03:50:08.452Z,-0.60
2019-02-15T03:52:38.782Z,-0.60
2019-02-15T03:55:09.138Z,-0.60
2019-02-15T03:57:39.460Z,-0.50
2019-02-15T04:00:11.271Z,-0.50
2019-02-15T04:02:41.559Z,-0.50
2019-02-15T04:05:11.926Z,-0.50
2019-02-15T04:07:42.216Z,-0.60
2019-02-15T04:10:12.557Z,-0.60
2019-02-15T04:12:42.868Z,-0.60
2019-02-15T04:15:13.221Z,-0.70
2019-02-15T04:17:43.589Z,-0.70
2019-02-15T04:20:13.919Z,-0.80
2019-02-15T04:22:44.250Z,-0.80
2019-02-15T04:25:14.610Z,-0.80
2019-02-15T04:27:45.018Z,-0.80
2019-02-15T04:30:15.384Z,-0.90
2019-02-15T04:32:45.694Z,-0.90
2019-02-15T04:35:16.028Z,-0.90
2019-02-15T04:37:46.330Z,-0.90
2019-02-15T04:40:16.667Z,-0.90
2019-02-15T04:42:46.975Z,-0.90
2019-02-15T04:45:17.310Z,-0.90
2019-02-15T04:47:47.625Z,-0.90
2019-02-15T04:50:17.979Z,-0.80
2019-02-15T04:52:48.297Z,-0.80
2019-02-15T04:55:18.639Z,-0.80
2019-02-15T04:57:48.957Z,-0.80
2019-02-15T05:00:19.286Z,-0.90
2019-02-15T05:02:49.702Z,-0.90
2019-02-15T05:05:20.124Z,-0.90
2019-02-15T05:07:50.740Z,-1.00
2019-02-15T05:10:21.262Z,-1.00
2019-02-15T05:12:51.951Z,-1.00
2019-02-15T05:15:22.322Z,-1.10
2019-02-15T05:17:52.939Z,-1.10
2019-02-15T05:20:23.351Z,-1.10
2019-02-15T05:22:53.741Z,-1.10
2019-02-15T05:25:24.226Z,-1.10
2019-02-15T05:27:54.838Z,-1.20
2019-02-15T05:30:25.205Z,-1.20
2019-02-15T05:32:55.691Z,-1.20
2019-02-15T05:35:26.194Z,-1.20
2019-02-15T05:37:56.635Z,-1.20
2019-02-15T05:40:27.092Z,-1.20
2019-02-15T05:42:57.457Z,-1.20
2019-02-15T05:45:27.869Z,-1.30
2019-02-15T05:47:58.185Z,-1.30
2019-02-15T05:50:28.557Z,-1.30
2019-02-15T05:52:59.441Z,-1.30
2019-02-15T05:55:29.845Z,-1.30
2019-02-15T05:58:00.194Z,-1.30
2019-02-15T06:00:36.968Z,-1.30
2019-02-15T06:03:02.483Z,-1.30
2019-02-15T06:05:32.922Z,-1.30
2019-02-15T06:08:03.213Z,-1.30
2019-02-15T06:10:33.559Z,-1.30
2019-02-15T06:13:03.889Z,-1.30
2019-02-15T06:15:34.197Z,-1.40
2019-02-15T06:18:04.516Z,-1.40
2019-02-15T06:20:34.876Z,-1.40
2019-02-15T06:23:05.168Z,-1.40
2019-02-15T06:25:35.570Z,-1.40
2019-02-15T06:28:05.955Z,-1.30
2019-02-15T06:30:36.296Z,-1.30
2019-02-15T06:33:06.601Z,-1.30
2019-02-15T06:35:36.950Z,-1.30
2019-02-15T06:38:07.266Z,-1.30
2019-02-15T06:40:37.637Z,-1.30
2019-02-15T06:43:07.978Z,-1.30
2019-02-15T06:45:38.304Z,-1.30
2019-02-15T06:48:08.602Z,-1.30
2019-02-15T06:50:38.930Z,-1.30
2019-02-15T06:53:10.050Z,-1.30
2019-02-15T06:55:40.524Z,-1.30
2019-02-15T06:58:10.882Z,-1.30
2019-02-15T07:01:09.015Z,-1.30
2019-02-15T07:04:01.319Z,-1.30
2019-02-15T07:06:31.747Z,-1.30
2019-02-15T07:09:02.028Z,-1.20
2019-02-15T07:11:33.171Z,-1.20
2019-02-15T07:14:03.495Z,-1.20
2019-02-15T07:16:33.883Z,-1.10
2019-02-15T07:19:04.204Z,-1.10
2019-02-15T07:21:34.533Z,-1.00
2019-02-15T07:24:04.868Z,-1.00
2019-02-15T07:26:35.188Z,-0.90
2019-02-15T07:29:05.575Z,-0.80
2019-02-15T07:31:35.913Z,-0.80
2019-02-15T07:34:06.303Z,-0.70
2019-02-15T07:36:36.757Z,-0.70
2019-02-15T07:39:07.176Z,-0.60
2019-02-15T07:41:38.414Z,-0.50
2019-02-15T07:44:08.722Z,-0.50
2019-02-15T07:46:39.092Z,-0.40
2019-02-15T07:49:09.405Z,-0.30
2019-02-15T07:51:39.758Z,-0.20
2019-02-15T07:54:10.056Z,-0.10
2019-02-15T07:56:40.406Z,-0.10
2019-02-15T07:59:11.729Z,0.10
2019-02-15T08:01:42.058Z,0.10
2019-02-15T08:04:14.687Z,0.20
2019-02-15T08:06:45.191Z,0.30
2019-02-15T08:09:15.781Z,0.40
2019-02-15T08:11:49.358Z,0.50
2019-02-15T08:17:27.149Z,0.80
2019-02-15T08:19:57.501Z,1.00
2019-02-15T08:22:29.358Z,1.20
2019-02-15T08:25:03.961Z,1.40
2019-02-15T08:27:35.915Z,1.50
2019-02-15T08:30:06.671Z,1.70
2019-02-15T08:32:37.017Z,1.90
2019-02-15T08:35:08.139Z,2.00
2019-02-15T08:37:38.675Z,2.10
2019-02-15T08:40:09.709Z,2.20
2019-02-15T08:42:40.046Z,2.30
2019-02-15T08:45:12.024Z,2.30
2019-02-15T08:47:43.442Z,2.40
2019-02-15T08:50:14.038Z,2.40
2019-02-15T08:52:44.378Z,2.50
2019-02-15T08:55:14.687Z,2.60
2019-02-15T08:57:45.072Z,2.60
2019-02-15T09:00:15.568Z,2.70
2019-02-15T09:02:45.911Z,2.80
2019-02-15T09:05:16.218Z,2.80
2019-02-15T09:07:46.564Z,2.90
2019-02-15T09:10:16.870Z,3.00
2019-02-15T09:12:50.381Z,3.10
2019-02-15T09:15:21.757Z,3.20
2019-02-15T09:17:52.108Z,3.30
2019-02-15T09:20:22.386Z,3.40
2019-02-15T09:22:52.710Z,3.50
2019-02-15T09:25:23.010Z,3.60
2019-02-15T09:28:15.301Z,3.70
2019-02-15T09:30:50.795Z,3.80
2019-02-15T09:33:21.109Z,3.90
2019-02-15T09:35:51.413Z,4.00
2019-02-15T09:38:21.737Z,4.10
2019-02-15T09:40:52.015Z,4.20
2019-02-15T09:43:22.337Z,4.30
2019-02-15T09:45:53.602Z,4.40
2019-02-15T09:48:23.925Z,4.50
2019-02-15T09:50:54.239Z,4.60
2019-02-15T09:53:24.572Z,4.80
2019-02-15T09:55:54.877Z,4.90
2019-02-15T09:58:25.204Z,5.00
2019-02-15T10:00:56.584Z,5.20
2019-02-15T10:03:26.977Z,5.30
2019-02-15T10:05:57.272Z,5.40
2019-02-15T10:08:27.593Z,5.60
2019-02-15T10:10:57.966Z,5.70
2019-02-15T10:13:28.325Z,5.80
2019-02-15T10:15:58.654Z,5.90
2019-02-15T10:18:28.961Z,6.00
2019-02-15T10:20:59.300Z,6.10
2019-02-15T10:23:29.591Z,6.30
2019-02-15T10:25:59.931Z,6.40
2019-02-15T10:28:30.217Z,6.50
2019-02-15T10:31:01.690Z,6.70
2019-02-15T10:33:32.049Z,6.80
2019-02-15T10:36:02.419Z,6.90
2019-02-15T10:38:32.710Z,7.00
2019-02-15T10:41:03.054Z,7.20
2019-02-15T10:43:33.356Z,7.40
2019-02-15T10:46:03.686Z,7.80
2019-02-15T10:48:33.966Z,8.40
2019-02-15T10:51:04.395Z,9.10
2019-02-15T10:53:35.818Z,9.70
2019-02-15T10:56:06.273Z,10.30
2019-02-15T10:58:36.555Z,10.90
2019-02-15T11:01:06.966Z,11.40
2019-02-15T11:03:37.397Z,12.00
2019-02-15T11:06:07.720Z,12.60
2019-02-15T11:08:38.024Z,13.00
2019-02-15T11:11:08.364Z,13.50
2019-02-15T11:13:38.683Z,14.10
2019-02-15T11:16:08.984Z,14.60
2019-02-15T11:18:39.275Z,15.20
2019-02-15T11:21:10.710Z,15.70
2019-02-15T11:23:41.024Z,16.20
2019-02-15T11:26:11.361Z,16.50
2019-02-15T11:28:41.653Z,16.80
2019-02-15T11:31:11.994Z,17.00
2019-02-15T11:33:42.329Z,17.30
2019-02-15T11:36:12.682Z,17.60
2019-02-15T11:38:42.974Z,18.00
2019-02-15T11:41:13.477Z,18.40
2019-02-15T11:43:43.823Z,18.70
2019-02-15T11:46:14.211Z,19.10
2019-02-15T11:48:44.528Z,19.30
2019-02-15T11:51:15.843Z,19.60
2019-02-15T11:53:47.226Z,19.80
2019-02-15T11:56:17.732Z,20.00
2019-02-15T11:58:48.206Z,20.20
2019-02-15T12:01:18.508Z,20.40
2019-02-15T12:03:48.842Z,20.70
2019-02-15T12:06:19.173Z,20.90
2019-02-15T12:08:49.523Z,21.20
2019-02-15T12:11:19.856Z,21.40
2019-02-15T12:13:50.153Z,21.60
2019-02-15T12:16:20.503Z,22.00
2019-02-15T12:18:50.789Z,22.30
2019-02-15T12:21:21.124Z,22.70
2019-02-15T12:23:51.513Z,23.20
2019-02-15T12:26:21.885Z,23.60
2019-02-15T12:28:52.194Z,23.90
2019-02-15T12:31:22.499Z,24.30
2019-02-15T12:33:52.825Z,24.70
2019-02-15T12:36:23.166Z,25.10
2019-02-15T12:38:53.504Z,25.50
2019-02-15T12:41:23.800Z,25.80
2019-02-15T12:43:54.220Z,26.00
2019-02-15T12:46:24.543Z,26.30
2019-02-15T12:48:54.887Z,26.50
2019-02-15T12:51:25.202Z,26.50
2019-02-15T12:53:55.563Z,26.70
2019-02-15T12:56:25.907Z,26.80
2019-02-15T12:58:56.253Z,26.70
2019-02-15T13:01:26.571Z,26.60
2019-02-15T13:03:57.003Z,26.60
2019-02-15T13:06:28.814Z,26.50
2019-02-15T13:08:59.314Z,26.40
2019-02-15T13:11:30.549Z,26.40
2019-02-15T13:14:00.959Z,26.40
2019-02-15T13:16:31.267Z,26.50
2019-02-15T13:19:01.623Z,26.80
2019-02-15T13:21:31.937Z,27.20
2019-02-15T13:24:02.278Z,27.60
2019-02-15T13:26:32.619Z,27.90
2019-02-15T13:29:02.952Z,28.20
2019-02-15T13:31:33.250Z,28.30
2019-02-15T13:34:03.589Z,28.40
2019-02-15T13:36:33.927Z,28.40
2019-02-15T13:39:05.292Z,28.20
2019-02-15T13:41:35.688Z,28.10
2019-02-15T13:44:06.789Z,28.00
2019-02-15T13:46:37.096Z,27.90
2019-02-15T13:49:07.486Z,27.90
2019-02-15T13:51:37.770Z,27.90
2019-02-15T13:54:08.592Z,28.10
2019-02-15T13:56:40.595Z,28.30
2019-02-15T13:59:11.107Z,28.50
2019-02-15T14:01:42.739Z,28.60
2019-02-15T14:04:14.968Z,28.90
2019-02-15T14:06:55.971Z,29.00
2019-02-15T14:09:26.294Z,29.30
2019-02-15T14:11:56.604Z,29.60
2019-02-15T14:14:26.962Z,29.80
2019-02-15T14:16:57.252Z,29.90
2019-02-15T14:19:27.612Z,29.80
2019-02-15T14:21:58.020Z,29.60
2019-02-15T14:24:28.415Z,29.50
2019-02-15T14:26:59.049Z,29.20
2019-02-15T14:29:29.384Z,28.80
2019-02-15T14:31:59.713Z,28.50
2019-02-15T14:34:31.045Z,27.80
2019-02-15T14:37:01.574Z,27.00
2019-02-15T14:39:33.198Z,26.80
2019-02-15T14:42:03.561Z,26.90
2019-02-15T14:44:33.940Z,27.00
2019-02-15T14:47:04.513Z,26.90
2019-02-15T14:49:34.981Z,27.00
2019-02-15T14:52:05.372Z,26.90
2019-02-15T14:54:35.706Z,26.70
2019-02-15T14:57:06.123Z,26.80
2019-02-15T14:59:36.470Z,26.80
2019-02-15T15:02:06.780Z,26.70
2019-02-15T15:04:37.120Z,26.80
2019-02-15T15:07:07.782Z,26.80
2019-02-15T15:09:38.126Z,26.80
2019-02-15T15:12:08.512Z,26.80
2019-02-15T15:14:39.646Z,26.80
2019-02-15T15:17:09.983Z,26.80
2019-02-15T15:19:40.385Z,26.60
2019-02-15T15:22:10.727Z,26.40
2019-02-15T15:24:41.103Z,26.20
2019-02-15T15:27:11.572Z,25.90
2019-02-15T15:29:41.910Z,25.60
2019-02-15T15:32:12.211Z,25.40
2019-02-15T15:34:42.545Z,25.10
2019-02-15T15:37:16.581Z,24.90
2019-02-15T15:39:46.172Z,24.50
2019-02-15T15:42:16.484Z,24.00
2019-02-15T15:44:47.028Z,23.50
2019-02-15T15:47:17.959Z,23.20
2019-02-15T15:49:48.299Z,23.00
2019-02-15T15:52:18.623Z,22.80
2019-02-15T15:54:49.592Z,22.60
2019-02-15T15:57:19.903Z,21.90
2019-02-15T15:59:50.247Z,20.90
2019-02-15T16:02:20.626Z,19.80
2019-02-15T16:04:51.036Z,18.70
2019-02-15T16:07:21.349Z,17.80
2019-02-15T16:09:51.692Z,17.00
2019-02-15T16:12:25.445Z,16.30
2019-02-15T16:14:57.387Z,15.60
2019-02-15T16:17:29.878Z,15.10
2019-02-15T16:20:00.308Z,14.60
2019-02-15T16:22:30.656Z,14.20
2019-02-15T16:25:00.966Z,13.90
2019-02-15T16:27:31.294Z,13.60
2019-02-15T16:30:01.595Z,13.30
2019-02-15T16:32:31.932Z,13.00
2019-02-15T16:35:02.238Z,12.80
2019-02-15T16:37:32.572Z,12.60
2019-02-15T16:40:02.875Z,12.30
2019-02-15T16:42:33.217Z,12.10
2019-02-15T16:45:03.766Z,11.90
2019-02-15T16:47:34.130Z,11.70
2019-02-15T16:50:04.566Z,11.50
2019-02-15T16:52:34.944Z,11.30
2019-02-15T16:55:12.418Z,11.10
2019-02-15T16:57:37.259Z,10.90
2019-02-15T17:00:07.835Z,10.60
2019-02-15T17:02:38.304Z,10.50
2019-02-15T17:05:08.936Z,10.30
2019-02-15T17:07:39.268Z,10.10
2019-02-15T17:10:09.734Z,9.90
2019-02-15T17:12:40.160Z,9.80
2019-02-15T17:15:11.111Z,9.50
2019-02-15T17:17:41.738Z,9.40
2019-02-15T17:20:12.164Z,9.20
2019-02-15T17:22:42.828Z,9.10
2019-02-15T17:25:13.169Z,8.90
2019-02-15T17:27:43.487Z,8.80
2019-02-15T17:30:14.303Z,8.60
2019-02-15T17:32:44.630Z,8.50
2019-02-15T17:35:14.963Z,8.40
2019-02-15T17:37:45.262Z,8.40
2019-02-15T17:40:15.617Z,8.30
2019-02-15T17:42:45.915Z,8.20
2019-02-15T17:45:16.268Z,8.20
2019-02-15T17:47:46.605Z,8.10
2019-02-15T17:50:17.006Z,8.00
2019-02-15T17:52:47.458Z,7.90
2019-02-15T17:55:17.762Z,7.80
2019-02-15T17:57:48.144Z,7.70
2019-02-15T18:00:20.684Z,7.60
2019-02-15T18:02:52.017Z,7.40
2019-02-15T18:05:22.331Z,7.30
2019-02-15T18:07:52.629Z,7.20
2019-02-15T18:10:22.961Z,7.10
2019-02-15T18:12:53.294Z,7.00
2019-02-15T18:15:23.645Z,6.90
2019-02-15T18:17:54.056Z,6.80
2019-02-15T18:20:25.308Z,6.70
2019-02-15T18:22:55.620Z,6.60
2019-02-15T18:25:29.357Z,6.50
2019-02-15T18:28:00.335Z,6.40
2019-02-15T18:30:30.733Z,6.40
2019-02-15T18:33:02.918Z,6.30
2019-02-15T18:35:34.349Z,6.20
2019-02-15T18:38:04.641Z,6.10
2019-02-15T18:40:34.985Z,6.00
2019-02-15T18:43:05.294Z,6.00
2019-02-15T18:45:35.690Z,5.90
2019-02-15T18:48:06.189Z,5.80
2019-02-15T18:50:36.535Z,5.70
2019-02-15T18:53:06.827Z,5.60
2019-02-15T18:55:37.160Z,5.60
2019-02-15T18:58:07.513Z,5.50
2019-02-15T19:00:37.859Z,5.50
2019-02-15T19:03:09.302Z,5.50
2019-02-15T19:05:39.626Z,5.50
2019-02-15T19:08:09.926Z,5.50
2019-02-15T19:10:40.252Z,5.50
2019-02-15T19:13:19.439Z,5.40
2019-02-15T19:18:47.532Z,5.20
2019-02-15T19:21:17.854Z,5.10
2019-02-15T19:23:48.157Z,5.00
2019-02-15T19:26:18.492Z,4.90
2019-02-15T19:28:48.813Z,4.90
2019-02-15T19:31:19.243Z,4.80
2019-02-15T19:33:49.542Z,4.80
2019-02-15T19:36:19.885Z,4.70
2019-02-15T19:38:50.177Z,4.70
2019-02-15T19:41:21.469Z,4.60
2019-02-15T19:43:51.762Z,4.50
2019-02-15T19:46:22.944Z,4.40
2019-02-15T19:48:53.290Z,4.40
2019-02-15T19:51:23.835Z,4.30
2019-02-15T19:57:24.968Z,4.20
2019-02-15T19:59:55.852Z,4.00
2019-02-15T20:02:26.425Z,4.00
2019-02-15T20:04:57.295Z,3.90
2019-02-15T20:07:27.941Z,3.90
2019-02-15T20:09:58.695Z,3.90
2019-02-15T20:12:29.212Z,3.80
2019-02-15T20:14:59.823Z,3.80
2019-02-15T20:17:30.994Z,3.70
2019-02-15T20:20:01.354Z,3.70
2019-02-15T20:22:32.370Z,3.70
2019-02-15T20:25:03.195Z,3.70
2019-02-15T20:27:33.709Z,3.70
2019-02-15T20:30:04.327Z,3.60
2019-02-15T20:32:34.757Z,3.60
2019-02-15T20:35:05.194Z,3.60
2019-02-15T20:37:36.102Z,3.60
2019-02-15T20:40:07.645Z,3.50
2019-02-15T20:42:37.981Z,3.40
2019-02-15T20:45:11.442Z,3.40
2019-02-15T20:47:42.931Z,3.30
2019-02-15T20:50:14.758Z,3.20
2019-02-15T20:52:45.446Z,3.10
2019-02-15T20:55:16.199Z,3.10
2019-02-15T20:57:46.621Z,3.00
2019-02-15T21:00:19.370Z,3.00
2019-02-15T21:02:49.705Z,2.90
2019-02-15T21:05:20.065Z,2.90
2019-02-15T21:07:50.529Z,2.80
2019-02-15T21:10:20.906Z,2.80
2019-02-15T21:12:52.273Z,2.70
2019-02-15T21:15:24.169Z,2.70
2019-02-15T21:17:55.992Z,2.70
2019-02-15T21:20:26.417Z,2.60
2019-02-15T21:22:56.721Z,2.60
2019-02-15T21:25:27.744Z,2.60
2019-02-15T21:27:58.369Z,2.60
2019-02-15T21:30:28.767Z,2.50
2019-02-15T21:32:59.111Z,2.50
2019-02-15T21:35:30.358Z,2.50
2019-02-15T21:38:01.785Z,2.50
2019-02-15T21:40:32.088Z,2.40
2019-02-15T21:43:02.623Z,2.40
2019-02-15T21:45:32.871Z,2.40
2019-02-15T21:48:03.609Z,2.40
2019-02-15T21:50:36.199Z,2.30
2019-02-15T21:53:06.522Z,2.30
2019-02-15T21:55:36.987Z,2.20
2019-02-15T21:58:07.331Z,2.20
2019-02-15T22:00:38.824Z,2.20
2019-02-15T22:03:09.206Z,2.20
2019-02-15T22:05:41.378Z,2.20
2019-02-15T22:08:11.800Z,2.20
2019-02-15T22:10:42.981Z,2.20
2019-02-15T22:13:13.314Z,2.10
2019-02-15T22:15:43.630Z,2.10
2019-02-15T22:18:13.967Z,2.10
2019-02-15T22:20:44.313Z,2.10
2019-02-15T22:23:14.874Z,2.00
2019-02-15T22:25:45.176Z,2.00
2019-02-15T22:28:15.530Z,1.90
2019-02-15T22:30:46.703Z,1.90
2019-02-15T22:33:17.329Z,1.90
2019-02-15T22:35:47.701Z,1.80
2019-02-15T22:38:18.077Z,1.80
2019-02-15T22:40:50.715Z,1.80
2019-02-15T22:43:22.904Z,1.80
2019-02-15T22:45:53.421Z,1.70
2019-02-15T22:48:23.769Z,1.70
2019-02-15T22:50:54.084Z,1.60
2019-02-15T22:53:24.424Z,1.60
2019-02-15T22:55:55.007Z,1.60
2019-02-15T22:58:26.194Z,1.50
2019-02-15T23:01:20.417Z,1.50
2019-02-15T23:03:51.254Z,1.40
2019-02-15T23:06:21.549Z,1.40
2019-02-15T23:08:52.193Z,1.40
2019-02-15T23:11:22.877Z,1.40
2019-02-15T23:13:54.286Z,1.30
2019-02-15T23:16:24.784Z,1.30
2019-02-15T23:18:55.102Z,1.30
2019-02-15T23:21:25.454Z,1.20
2019-02-15T23:23:56.016Z,1.20
2019-02-15T23:26:26.454Z,1.20
2019-02-15T23:28:57.159Z,1.20
2019-02-15T23:31:27.603Z,1.20
2019-02-15T23:33:57.913Z,1.20
2019-02-15T23:36:28.459Z,1.20
2019-02-15T23:38:58.757Z,1.20
2019-02-15T23:41:29.754Z,1.20
2019-02-15T23:44:00.150Z,1.10
2019-02-15T23:46:31.123Z,1.10
2019-02-15T23:49:02.164Z,1.10
2019-02-15T23:51:32.600Z,1.10
2019-02-15T23:54:03.104Z,1.00
2019-02-15T23:56:33.692Z,1.00
2019-02-15T23:59:04.067Z,1.00
